Racecast

Kayla Chmiel

Temperance Bedford (MI) · 12 · SECMI D1MONROE · Compare head to head

Athlete rating 129.9 2014 XC season
Best race 128.7 XC
Races 37
Seasons 6 2010 — 2015

RankedNation #7059·MI #1046·MI D1 #661·SEC #61·Team #17 ?

Cross Country

2014 XC 124.2

Temperance Bedford (MI) · Grade 12

Date Meet Event Result Place Rating Difficulty PR/SR Flags
2014-10-25 Lake Erie Metro Park OFFICIAL 5000m 21:53.2 32nd · 3rd on team 125.3 +0.055 CSR
2014-10-04 Portage West MS 5000m 21:13 147th · 4th on team 126.3 +0.038 ★PR ★CR SR CSR
2014-09-23 Huron Meadows Metropark OFFICIAL 5000m 21:23.6 24th · 4th on team 128.7 +0.052 ★CR ★R CSR RSR
2014-09-20 Ella Sharp Park OFFICIAL 5000m 21:37.8 78th · 5th on team 124.3 +0.038 ★CR CSR
2014-09-09 Hudson Mills Metropark - OFFICIAL 5000m 21:40.8 33rd · 6th on team 124.4 +0.036 ★CR CSR RSR
2014-09-06 Hedges Boyer Park 5000m 21:19.9 154th · 5th on team 116.3 -0.036 PR ★CR SR CSR RSR

2013 XC 122.5

Temperance Bedford (MI) · Grade 11

Date Meet Event Result Place Rating Difficulty PR/SR Flags
2013-10-26 Lake Erie Metro Park OFFICIAL 5000m 21:47 5th · 5th on team 126.2 +0.055 PR ★CR R SR CSR RSR
2013-10-17 Hudson Mills Metropark - OFFICIAL 5000m 23:04.4 63rd · 11th on team 115.4 +0.036 CSR
2013-08-24 Island Lake Recreation Area OFFICIAL 5000m 22:15 14th · 6th on team 125.8 +0.069 ★CR R SR CSR RSR

2012 XC 116.3

Temperance Bedford (MI) · Grade 10

Date Meet Event Result Place Rating Difficulty PR/SR Flags
2012-10-18 Hudson Mills Metropark - OFFICIAL 5000m 22:02.8 26th · 2nd on team 122.7 +0.036 PR CR SR CSR RSR
2012-09-29 Pearson's Metro Park 5000m 22:17.4 9th · 3rd on team 113.5 -0.022 ★CR SR CSR
2012-09-27 Munson Park 5000m 22:20.8 39th · 9th on team 121.3 +0.054 ★CR SR CSR RSR
2012-09-11 Indian Creek OFFICIAL 5000m 23:06.6 67th · 10th on team 117.1 +0.039 ★CR CSR RSR
2012-09-08 Hedges Boyer Park 5000m 22:43.4 81st · 3rd on team 110.9 -0.036 CR SR CSR
2012-08-25 Island Lake Recreation Area OFFICIAL 5000m 24:53 28th · 15th on team 112.0 +0.069 SR CSR RSR

2011 XC 117.3

Temperance Bedford (MI) · Grade 9

Date Meet Event Result Place Rating Difficulty PR/SR Flags
2011-10-20 Hudson Mills Metropark - OFFICIAL 5000m 22:44 53rd · 8th on team 119.5 +0.036 CR CSR
2011-10-08 Portage West MS 5000m 22:11.3 36th · 2nd on team 123.2 +0.038 CR R CSR RSR
2011-10-01 Pearson's Metro Park 5000m 22:39 10th · 9th on team 112.0 -0.022 CR CSR
2011-09-27 Mill Pond Park 5000m 23:29.6 19th · 2nd on team 119.7 +0.081 ★CR CSR
2011-09-24 Ella Sharp Park OFFICIAL 5000m 23:07.4 142nd · 13th on team 116.7 +0.038 CR CSR
2011-09-16 Forest Akers East Golf Course 5000m 22:11 72nd · 4th on team 122.5 +0.061 PR ★CR R SR CSR RSR
2011-09-13 Willow Metropark OFFICIAL 5000m 23:29.2 19th · 3rd on team 117.2 +0.048 ★CR CSR
2011-09-10 Hedges Boyer Park 5000m 23:15.7 101st · 4th on team 107.2 -0.036 PR CR SR CSR
2011-08-27 Island Lake Recreation Area OFFICIAL 5000m 23:31 40th · 3rd on team 118.1 +0.069 PR CR R SR CSR RSR

2010 XC 91.1

Temperance Bedford (MI) · Grade 8

Date Meet Event Result Place Rating Difficulty PR/SR Flags
2010-09-17 Forest Akers East Golf Course 2655m 14:15 41st · 4th on team 105.4 ★PR ★CR R SR CSR RSR
2010-09-11 Hedges Boyer Park 2000m 13:53.1 71st · 3rd on team 76.9 ★PR ★CR R SR CSR RSR

Track & Field

2015 TF 112.1

Temperance Bedford (MI) · Grade 12

Date Meet Event Result Place Rating Difficulty PR/SR Flags
2015-05-15 MHSAA LP Regional 03-1 @ Saline 3200m 13:05.52 14th · 2nd on team 112.2 -0.042
2015-05-12 SEC: Bedford @ Huron 3200m 14:19 3rd · 3rd on team 104.2 -0.034
2015-05-01 Nancy Erme Girls Relays - Whitmer 3200m 12:54 5th · 1st on team 114.1 -0.040 SR
2015-04-28 SEC: Skyline @ Bedford 1600m 6:00 7th · 4th on team 114.5 -0.033 SR
2015-04-25 Whitmore Lake HS Invite 3200m 12:55.47 2nd · 1st on team 115.0 -0.029 SR RSR
2015-04-16 Springfield Invitational 3200m 13:10 6th · 2nd on team 112.8 -0.029 SR RSR

2014 TF 112.9

Temperance Bedford (MI) · Grade 11

Date Meet Event Result Place Rating Difficulty PR/SR Flags
2014-05-16 MHSAA Regional 3-1 @ Saline 3200m 12:43.13 14th · 2nd on team 114.7 -0.042 ★PR SR
2014-05-09 SEC Championships 1600m 5:56.58 8th · 2nd on team 116.4 -0.032
2014-05-06 Saline Quad 1600m 6:03.07 15th · 3rd on team 112.5 -0.042
2014-05-06 Saline Quad 800m 2:54.91 7th · 3rd on team 103.5 -0.042 ★PR SR
2014-04-17 Springfield Invitational 1600m 5:52.9 7th · 2nd on team 117.2 -0.029 ★PR SR RSR